createdAt,value
2022-10-30T00:01:05.926Z,23.20
2022-10-30T00:03:40.479Z,24.48
2022-10-30T00:06:07.668Z,24.45
2022-10-30T00:08:34.896Z,23.40
2022-10-30T00:11:11.971Z,24.10
2022-10-30T00:13:43.126Z,28.27
2022-10-30T00:16:10.331Z,25.40
2022-10-30T00:18:38.517Z,24.55
2022-10-30T00:21:15.964Z,24.05
2022-10-30T00:23:52.079Z,25.33
2022-10-30T00:26:20.981Z,32.42
2022-10-30T00:28:52.114Z,30.55
2022-10-30T00:31:19.344Z,24.52
2022-10-30T00:33:52.698Z,26.13
2022-10-30T00:36:20.461Z,27.17
2022-10-30T00:38:47.806Z,22.30
2022-10-30T00:41:16.380Z,23.42
2022-10-30T00:43:43.928Z,24.02
2022-10-30T00:46:37.812Z,24.50
2022-10-30T00:49:08.437Z,25.33
2022-10-30T00:51:36.839Z,22.27
2022-10-30T00:54:05.698Z,23.10
2022-10-30T00:56:32.818Z,23.48
2022-10-30T00:59:07.849Z,24.77
2022-10-30T01:01:37.764Z,24.95
2022-10-30T01:04:06.275Z,23.80
2022-10-30T01:06:36.342Z,23.17
2022-10-30T01:09:04.202Z,23.27
2022-10-30T01:11:31.592Z,22.88
2022-10-30T01:14:02.235Z,23.13
2022-10-30T01:16:48.354Z,24.00
2022-10-30T01:19:39.137Z,23.05
2022-10-30T01:22:44.546Z,24.55
2022-10-30T01:25:20.922Z,22.25
2022-10-30T01:28:02.630Z,22.60
2022-10-30T01:30:42.515Z,23.52
2022-10-30T01:33:15.343Z,23.50
2022-10-30T01:36:00.130Z,22.30
2022-10-30T01:38:32.473Z,21.30
2022-10-30T01:41:00.379Z,20.80
2022-10-30T01:43:27.512Z,22.48
2022-10-30T01:45:59.238Z,23.27
2022-10-30T01:48:51.131Z,22.95
2022-10-30T01:51:39.683Z,21.00
2022-10-30T01:54:33.678Z,22.08
2022-10-30T01:57:19.668Z,21.88
2022-10-30T01:59:55.356Z,22.60
2022-10-30T02:02:23.317Z,22.00
2022-10-30T02:04:51.197Z,22.35
2022-10-30T02:07:18.352Z,23.58
2022-10-30T02:09:51.474Z,23.73
2022-10-30T02:12:19.107Z,23.60
2022-10-30T02:14:49.390Z,23.70
2022-10-30T02:17:16.972Z,24.20
2022-10-30T02:19:43.952Z,24.70
2022-10-30T02:22:11.964Z,24.38
2022-10-30T02:24:39.503Z,23.02
2022-10-30T02:27:07.216Z,23.55
2022-10-30T02:29:34.383Z,22.27
2022-10-30T02:32:01.824Z,22.13
2022-10-30T02:34:29.083Z,23.60
2022-10-30T02:36:57.840Z,23.00
2022-10-30T02:39:24.755Z,23.98
2022-10-30T02:41:52.249Z,22.73
2022-10-30T02:44:19.391Z,23.27
2022-10-30T02:46:47.741Z,23.95
2022-10-30T02:49:14.612Z,23.10
2022-10-30T02:51:41.779Z,24.08
2022-10-30T02:54:08.863Z,24.15
2022-10-30T02:56:35.823Z,24.67
2022-10-30T02:59:03.177Z,24.00
2022-10-30T03:01:30.374Z,24.10
2022-10-30T03:03:59.204Z,24.90
2022-10-30T03:06:26.283Z,23.50
2022-10-30T03:08:53.213Z,24.15
2022-10-30T03:11:20.664Z,25.90
2022-10-30T03:13:48.565Z,24.02
2022-10-30T03:16:21.145Z,24.35
2022-10-30T03:18:50.410Z,25.38
2022-10-30T03:21:20.463Z,24.85
2022-10-30T03:23:47.719Z,24.92
2022-10-30T03:26:14.579Z,24.83
2022-10-30T03:29:04.863Z,25.35
2022-10-30T03:31:32.913Z,23.85
2022-10-30T03:34:23.085Z,24.40
2022-10-30T03:36:49.962Z,23.13
2022-10-30T03:39:16.915Z,24.30
2022-10-30T03:41:46.045Z,25.00
2022-10-30T03:44:13.108Z,25.00
2022-10-30T03:46:40.019Z,25.52
2022-10-30T03:49:28.597Z,24.50
2022-10-30T03:51:56.850Z,26.75
2022-10-30T03:54:25.848Z,24.52
2022-10-30T03:56:53.042Z,24.67
2022-10-30T03:59:21.154Z,24.52
2022-10-30T04:02:14.409Z,24.35
2022-10-30T04:04:41.953Z,23.38
2022-10-30T04:07:08.893Z,23.45
2022-10-30T04:09:36.315Z,23.75
2022-10-30T04:12:03.174Z,24.67
2022-10-30T04:14:30.298Z,22.92
2022-10-30T04:16:57.261Z,22.58
2022-10-30T04:19:24.254Z,23.17
2022-10-30T04:21:51.403Z,22.55
2022-10-30T04:24:18.987Z,23.80
2022-10-30T04:26:49.608Z,22.05
2022-10-30T04:29:16.695Z,21.88
2022-10-30T04:31:44.566Z,22.67
2022-10-30T04:34:12.416Z,21.75
2022-10-30T04:36:39.541Z,21.33
2022-10-30T04:39:06.461Z,21.83
2022-10-30T04:41:34.613Z,22.30
2022-10-30T04:44:07.599Z,21.50
2022-10-30T04:46:34.858Z,21.10
2022-10-30T04:49:10.125Z,21.55
2022-10-30T04:51:37.043Z,21.42
2022-10-30T04:54:05.819Z,23.02
2022-10-30T04:56:33.132Z,22.48
2022-10-30T04:59:00.450Z,21.88
2022-10-30T05:01:27.596Z,22.38
2022-10-30T05:03:55.413Z,22.10
2022-10-30T05:06:25.534Z,21.05
2022-10-30T05:08:52.685Z,23.20
2022-10-30T05:11:29.521Z,22.48
2022-10-30T05:13:57.054Z,20.65
2022-10-30T05:16:24.048Z,22.85
2022-10-30T05:18:52.494Z,21.65
2022-10-30T05:21:19.678Z,22.10
2022-10-30T05:23:47.310Z,22.60
2022-10-30T05:26:14.480Z,21.33
2022-10-30T05:28:42.713Z,22.35
2022-10-30T05:31:09.940Z,21.70
2022-10-30T05:33:58.643Z,23.35
2022-10-30T05:36:26.596Z,23.33
2022-10-30T05:38:53.680Z,23.20
2022-10-30T05:41:39.010Z,24.05
2022-10-30T05:44:06.073Z,24.00
2022-10-30T05:46:34.236Z,22.92
2022-10-30T05:49:19.540Z,24.00
2022-10-30T05:51:46.852Z,22.85
2022-10-30T05:54:13.749Z,23.60
2022-10-30T05:56:54.434Z,22.80
2022-10-30T05:59:21.539Z,24.55
2022-10-30T06:01:48.697Z,22.63
2022-10-30T06:04:15.908Z,23.33
2022-10-30T06:06:43.353Z,22.38
2022-10-30T06:09:10.435Z,23.17
2022-10-30T06:11:46.347Z,21.27
2022-10-30T06:14:14.424Z,21.83
2022-10-30T06:16:47.316Z,22.30
2022-10-30T06:19:33.028Z,21.95
2022-10-30T06:22:21.122Z,21.75
2022-10-30T06:24:54.199Z,21.40
2022-10-30T06:27:39.051Z,20.58
2022-10-30T06:30:06.640Z,20.67
2022-10-30T06:32:33.541Z,21.48
2022-10-30T06:35:00.480Z,22.05
2022-10-30T06:37:28.228Z,21.80
2022-10-30T06:39:55.248Z,21.10
2022-10-30T06:42:46.390Z,21.90
2022-10-30T06:45:51.824Z,21.60
2022-10-30T06:48:19.133Z,22.00
2022-10-30T06:51:00.005Z,21.92
2022-10-30T06:53:29.744Z,21.50
2022-10-30T06:56:09.831Z,22.45
2022-10-30T06:58:52.361Z,21.33
2022-10-30T07:01:37.663Z,22.80
2022-10-30T07:04:24.141Z,22.02
2022-10-30T07:06:51.078Z,20.85
2022-10-30T07:09:20.574Z,20.63
2022-10-30T07:11:48.707Z,21.65
2022-10-30T07:14:19.951Z,21.83
2022-10-30T07:16:55.925Z,21.02
2022-10-30T07:19:23.953Z,21.20
2022-10-30T07:21:52.331Z,19.98
2022-10-30T07:24:19.756Z,21.85
2022-10-30T07:27:05.013Z,20.73
2022-10-30T07:29:37.063Z,21.17
2022-10-30T07:32:24.241Z,21.05
2022-10-30T07:35:29.974Z,21.08
2022-10-30T07:38:15.298Z,20.73
2022-10-30T07:40:53.740Z,19.75
2022-10-30T07:43:52.652Z,19.55
2022-10-30T07:46:37.183Z,19.15
2022-10-30T07:49:30.682Z,19.45
2022-10-30T07:52:02.142Z,18.08
2022-10-30T07:54:29.895Z,18.98
2022-10-30T07:57:03.326Z,18.67
2022-10-30T08:02:40.359Z,18.17
2022-10-30T08:05:33.518Z,15.35
2022-10-30T08:08:07.000Z,14.73
2022-10-30T08:10:34.733Z,17.15
2022-10-30T08:13:02.866Z,17.13
2022-10-30T08:15:30.009Z,17.10
2022-10-30T08:17:57.547Z,14.18
2022-10-30T08:20:26.206Z,11.80
2022-10-30T08:22:55.798Z,12.10
2022-10-30T08:25:30.393Z,12.55
2022-10-30T08:27:59.810Z,13.75
2022-10-30T08:30:34.656Z,12.93
2022-10-30T08:33:07.347Z,11.20
2022-10-30T08:35:50.915Z,11.38
2022-10-30T08:38:18.632Z,12.52
2022-10-30T08:40:51.168Z,10.45
2022-10-30T08:43:19.255Z,11.02
2022-10-30T08:45:46.603Z,11.85
2022-10-30T08:48:16.726Z,10.02
2022-10-30T08:50:45.212Z,9.77
2022-10-30T08:53:16.142Z,7.30
2022-10-30T08:55:45.418Z,7.93
2022-10-30T08:58:31.100Z,8.45
2022-10-30T09:01:01.365Z,7.72
2022-10-30T09:03:55.516Z,8.98
2022-10-30T09:06:48.164Z,7.63
2022-10-30T09:09:34.054Z,6.88
2022-10-30T09:12:03.039Z,7.43
2022-10-30T09:14:35.728Z,7.03
2022-10-30T09:17:02.739Z,6.78
2022-10-30T09:19:30.904Z,6.28
2022-10-30T09:21:59.071Z,7.25
2022-10-30T09:24:26.448Z,6.00
2022-10-30T09:26:55.711Z,6.72
2022-10-30T09:29:25.028Z,6.55
2022-10-30T09:32:01.754Z,5.75
2022-10-30T09:34:31.157Z,5.95
2022-10-30T09:37:13.593Z,6.07
2022-10-30T09:39:44.267Z,5.68
2022-10-30T09:42:20.777Z,5.65
2022-10-30T09:45:23.111Z,5.35
2022-10-30T09:47:56.461Z,4.15
2022-10-30T09:50:54.805Z,3.90
2022-10-30T09:53:38.788Z,4.82
2022-10-30T09:56:16.124Z,5.18
2022-10-30T09:59:18.078Z,4.72
2022-10-30T10:01:52.480Z,4.70
2022-10-30T10:04:27.520Z,4.68
2022-10-30T10:07:07.935Z,4.25
2022-10-30T10:09:51.679Z,5.05
2022-10-30T10:12:33.974Z,4.60
2022-10-30T10:15:05.645Z,4.47
2022-10-30T10:17:35.273Z,4.50
2022-10-30T10:20:05.785Z,5.07
2022-10-30T10:22:39.379Z,4.78
2022-10-30T10:25:11.407Z,3.63
2022-10-30T10:27:59.993Z,3.95
2022-10-30T10:30:33.633Z,4.18
2022-10-30T10:33:26.731Z,4.47
2022-10-30T10:36:05.849Z,3.80
2022-10-30T10:38:41.757Z,3.83
2022-10-30T10:41:08.807Z,3.75
2022-10-30T10:44:14.273Z,3.90
2022-10-30T10:47:01.733Z,3.67
2022-10-30T10:49:53.811Z,3.80
2022-10-30T10:52:24.540Z,3.88
2022-10-30T10:55:04.730Z,3.95
2022-10-30T10:57:37.600Z,3.45
2022-10-30T11:00:25.623Z,3.38
2022-10-30T11:03:00.839Z,3.60
2022-10-30T11:05:32.774Z,3.55
2022-10-30T11:08:07.212Z,3.08
2022-10-30T11:10:34.197Z,3.88
2022-10-30T11:13:01.726Z,4.35
2022-10-30T11:15:37.573Z,3.92
2022-10-30T11:18:09.651Z,4.13
2022-10-30T11:21:01.359Z,3.55
2022-10-30T11:23:39.028Z,4.28
2022-10-30T11:26:27.132Z,3.88
2022-10-30T11:29:29.038Z,3.95
2022-10-30T11:32:03.640Z,3.67
2022-10-30T11:34:36.072Z,3.42
2022-10-30T11:37:04.204Z,3.33
2022-10-30T11:39:35.349Z,3.92
2022-10-30T11:42:06.441Z,3.83
2022-10-30T11:44:33.498Z,3.45
2022-10-30T11:47:00.829Z,2.97
2022-10-30T11:49:55.318Z,3.35
2022-10-30T11:52:23.845Z,2.95
2022-10-30T11:54:53.658Z,3.83
2022-10-30T11:57:24.265Z,2.85
2022-10-30T11:59:54.487Z,2.97
2022-10-30T12:02:23.086Z,3.08
2022-10-30T12:04:51.001Z,3.72
2022-10-30T12:07:24.277Z,2.55
2022-10-30T12:09:51.202Z,3.30
2022-10-30T12:12:28.742Z,3.50
2022-10-30T12:14:55.760Z,3.17
2022-10-30T12:17:22.999Z,2.90
2022-10-30T12:19:51.887Z,3.80
2022-10-30T12:22:33.037Z,3.50
2022-10-30T12:25:03.185Z,2.42
2022-10-30T12:27:32.098Z,2.30
2022-10-30T12:30:09.325Z,3.03
2022-10-30T12:32:49.896Z,2.45
2022-10-30T12:35:43.076Z,2.45
2022-10-30T12:38:17.673Z,2.45
2022-10-30T12:40:56.288Z,4.60
2022-10-30T12:43:27.160Z,3.40
2022-10-30T12:46:23.787Z,2.47
2022-10-30T12:49:01.725Z,2.33
2022-10-30T12:51:51.712Z,2.33
2022-10-30T12:54:51.100Z,2.60
2022-10-30T12:57:22.814Z,2.85
2022-10-30T13:00:15.706Z,2.83
2022-10-30T13:02:43.081Z,2.47
2022-10-30T13:05:26.934Z,2.60
2022-10-30T13:08:05.345Z,2.53
2022-10-30T13:10:46.322Z,2.42
2022-10-30T13:13:19.179Z,2.35
2022-10-30T13:15:52.039Z,2.30
2022-10-30T13:18:21.548Z,2.42
2022-10-30T13:21:20.851Z,2.30
2022-10-30T13:23:59.234Z,2.40
2022-10-30T13:26:49.422Z,2.30
2022-10-30T13:29:19.264Z,2.83
2022-10-30T13:32:04.181Z,2.60
2022-10-30T13:34:36.029Z,2.35
2022-10-30T13:37:11.804Z,2.53
2022-10-30T13:39:43.762Z,2.20
2022-10-30T13:42:38.937Z,2.72
2022-10-30T13:45:57.045Z,2.70
2022-10-30T13:49:21.385Z,3.17
2022-10-30T13:51:58.088Z,2.75
2022-10-30T13:54:34.925Z,3.03
2022-10-30T13:57:14.628Z,2.60
2022-10-30T14:00:15.529Z,2.60
2022-10-30T14:02:51.072Z,2.13
2022-10-30T14:05:36.717Z,2.35
2022-10-30T14:08:25.731Z,2.33
2022-10-30T14:10:57.583Z,2.78
2022-10-30T14:13:56.266Z,2.38
2022-10-30T14:16:46.129Z,2.70
2022-10-30T14:19:14.924Z,3.85
2022-10-30T14:21:52.913Z,2.38
2022-10-30T14:27:05.688Z,1.75
2022-10-30T14:29:35.931Z,2.00
2022-10-30T14:32:23.028Z,2.00
2022-10-30T14:34:50.213Z,2.10
2022-10-30T14:37:25.256Z,2.45
2022-10-30T14:39:53.185Z,2.53
2022-10-30T14:42:35.175Z,2.53
2022-10-30T14:45:11.244Z,2.50
2022-10-30T14:47:56.836Z,2.75
2022-10-30T14:50:26.941Z,3.05
2022-10-30T14:53:02.959Z,2.80
2022-10-30T14:55:57.975Z,3.00
2022-10-30T14:58:31.757Z,3.28
2022-10-30T15:01:23.653Z,4.15
2022-10-30T15:04:17.475Z,3.40
2022-10-30T15:06:50.783Z,3.22
2022-10-30T15:09:36.023Z,3.88
2022-10-30T15:12:15.213Z,3.08
2022-10-30T15:14:59.973Z,3.67
2022-10-30T15:17:30.889Z,4.07
2022-10-30T15:20:00.072Z,3.25
2022-10-30T15:22:29.009Z,3.50
2022-10-30T15:24:56.180Z,3.75
2022-10-30T15:27:24.142Z,3.33
2022-10-30T15:29:55.108Z,3.35
2022-10-30T15:32:24.462Z,3.50
2022-10-30T15:35:03.269Z,3.53
2022-10-30T15:37:31.455Z,3.70
2022-10-30T15:40:11.103Z,3.58
2022-10-30T15:42:39.155Z,4.20
2022-10-30T15:45:06.961Z,13.88
2022-10-30T15:47:34.080Z,14.95
2022-10-30T15:50:00.985Z,6.20
2022-10-30T15:52:29.078Z,10.77
2022-10-30T15:55:12.150Z,7.78
2022-10-30T15:58:02.389Z,7.80
2022-10-30T16:00:33.485Z,6.43
2022-10-30T16:03:07.910Z,6.32
2022-10-30T16:05:35.489Z,6.25
2022-10-30T16:08:04.422Z,7.22
2022-10-30T16:10:34.497Z,6.75
2022-10-30T16:13:03.137Z,5.70
2022-10-30T16:15:40.052Z,5.50
2022-10-30T16:18:15.679Z,5.50
2022-10-30T16:20:45.777Z,5.40
2022-10-30T16:23:13.770Z,6.22
2022-10-30T16:25:46.746Z,12.18
2022-10-30T16:28:34.778Z,7.20
2022-10-30T16:31:05.055Z,5.55
2022-10-30T16:33:33.789Z,6.93
2022-10-30T16:36:02.697Z,8.00
2022-10-30T16:38:34.975Z,10.45
2022-10-30T16:41:01.942Z,12.25
2022-10-30T16:43:30.764Z,11.75
2022-10-30T16:46:16.248Z,8.85
2022-10-30T16:48:48.672Z,5.70
2022-10-30T16:51:17.582Z,7.13
2022-10-30T16:53:48.446Z,6.15
2022-10-30T16:56:27.385Z,7.25
2022-10-30T16:58:57.567Z,7.70
2022-10-30T17:01:28.198Z,7.30
2022-10-30T17:03:56.057Z,7.10
2022-10-30T17:06:37.624Z,9.48
2022-10-30T17:09:09.025Z,6.20
2022-10-30T17:11:44.035Z,6.68
2022-10-30T17:14:21.835Z,5.88
2022-10-30T17:16:56.699Z,5.80
2022-10-30T17:19:32.761Z,8.25
2022-10-30T17:22:02.743Z,10.77
2022-10-30T17:24:35.072Z,7.45
2022-10-30T17:27:05.105Z,7.15
2022-10-30T17:29:38.161Z,6.20
2022-10-30T17:32:07.050Z,6.43
2022-10-30T17:34:37.166Z,6.72
2022-10-30T17:37:04.114Z,7.88
2022-10-30T17:39:31.209Z,7.15
2022-10-30T17:41:58.333Z,6.75
2022-10-30T17:44:25.816Z,6.05
2022-10-30T17:46:54.635Z,6.07
2022-10-30T17:49:29.686Z,6.72
2022-10-30T17:51:56.912Z,6.63
2022-10-30T17:54:24.170Z,6.60
2022-10-30T17:56:51.496Z,6.57
2022-10-30T17:59:18.600Z,9.07
2022-10-30T18:01:45.647Z,7.93
2022-10-30T18:04:19.763Z,12.55
2022-10-30T18:06:49.066Z,9.23
2022-10-30T18:09:16.361Z,9.23
2022-10-30T18:11:43.413Z,9.82
2022-10-30T18:14:12.422Z,8.25
2022-10-30T18:16:39.507Z,7.82
2022-10-30T18:19:10.412Z,7.75
2022-10-30T18:21:37.427Z,8.20
2022-10-30T18:24:12.159Z,7.78
2022-10-30T18:26:40.637Z,7.63
2022-10-30T18:29:09.072Z,7.60
2022-10-30T18:31:36.322Z,7.72
2022-10-30T18:34:03.803Z,7.63
2022-10-30T18:36:31.181Z,7.65
2022-10-30T18:38:58.469Z,7.60
2022-10-30T18:41:29.430Z,7.68
2022-10-30T18:43:56.429Z,8.52
2022-10-30T18:46:24.260Z,8.82
2022-10-30T18:48:51.376Z,8.63
2022-10-30T18:51:23.237Z,8.48
2022-10-30T18:53:52.134Z,8.32
2022-10-30T18:56:37.206Z,9.85
2022-10-30T18:59:04.146Z,9.73
2022-10-30T19:01:34.686Z,9.85
2022-10-30T19:04:03.785Z,10.13
2022-10-30T19:06:32.951Z,10.75
2022-10-30T19:09:00.076Z,12.80
2022-10-30T19:11:30.254Z,10.95
2022-10-30T19:13:58.525Z,13.40
2022-10-30T19:16:26.237Z,12.52
2022-10-30T19:18:53.813Z,12.55
2022-10-30T19:21:23.019Z,13.77
2022-10-30T19:23:50.424Z,11.95
2022-10-30T19:26:17.861Z,11.75
2022-10-30T19:28:45.774Z,11.82
2022-10-30T19:31:18.434Z,14.18
2022-10-30T19:33:47.553Z,14.57
2022-10-30T19:36:35.842Z,11.50
2022-10-30T19:39:14.093Z,11.85
2022-10-30T19:41:41.576Z,11.98
2022-10-30T19:44:09.318Z,11.77
2022-10-30T19:46:36.805Z,12.30
2022-10-30T19:49:16.868Z,13.23
2022-10-30T19:51:44.160Z,12.57
2022-10-30T19:54:11.446Z,12.95
2022-10-30T19:56:38.674Z,22.45
2022-10-30T19:59:13.717Z,13.68
2022-10-30T20:01:41.873Z,17.55
2022-10-30T20:04:10.312Z,14.60
2022-10-30T20:06:37.802Z,16.17
2022-10-30T20:09:05.569Z,30.85
2022-10-30T20:11:32.633Z,22.77
2022-10-30T20:13:59.865Z,16.75
2022-10-30T20:16:27.014Z,24.17
2022-10-30T20:18:54.265Z,28.50
2022-10-30T20:21:21.547Z,22.70
2022-10-30T20:23:48.570Z,28.88
2022-10-30T20:26:23.749Z,22.08
2022-10-30T20:28:50.966Z,18.83
2022-10-30T20:31:17.907Z,23.70
2022-10-30T20:33:45.195Z,23.92
2022-10-30T20:36:13.787Z,21.02
2022-10-30T20:38:40.701Z,18.83
2022-10-30T20:41:19.680Z,17.70
2022-10-30T20:43:46.723Z,19.30
2022-10-30T20:46:13.772Z,15.70
2022-10-30T20:48:40.620Z,17.63
2022-10-30T20:51:07.956Z,18.67
2022-10-30T20:53:34.814Z,19.98
2022-10-30T20:56:01.770Z,16.80
2022-10-30T20:58:29.402Z,16.70
2022-10-30T21:00:58.361Z,16.40
2022-10-30T21:03:26.749Z,16.08
2022-10-30T21:05:59.736Z,17.58
2022-10-30T21:08:28.393Z,16.42
2022-10-30T21:11:05.914Z,20.88
2022-10-30T21:13:36.705Z,26.15
2022-10-30T21:16:06.258Z,34.60
2022-10-30T21:18:33.498Z,39.13
2022-10-30T21:21:05.092Z,28.85
2022-10-30T21:23:32.082Z,22.35
2022-10-30T21:26:03.581Z,29.27
2022-10-30T21:28:30.735Z,19.52
2022-10-30T21:31:04.033Z,16.30
2022-10-30T21:33:32.258Z,17.23
2022-10-30T21:36:13.078Z,17.98
2022-10-30T21:38:44.663Z,16.13
2022-10-30T21:41:13.445Z,15.82
2022-10-30T21:43:40.578Z,17.23
2022-10-30T21:46:09.170Z,15.40
2022-10-30T21:48:36.141Z,16.75
2022-10-30T21:51:06.354Z,18.55
2022-10-30T21:53:33.257Z,17.38
2022-10-30T21:56:04.620Z,20.00
2022-10-30T21:58:32.020Z,18.20
2022-10-30T22:00:58.946Z,19.05
2022-10-30T22:03:25.879Z,17.70
2022-10-30T22:05:53.384Z,17.27
2022-10-30T22:08:20.928Z,15.52
2022-10-30T22:10:47.788Z,16.88
2022-10-30T22:13:14.896Z,16.33
2022-10-30T22:15:41.836Z,17.33
2022-10-30T22:18:08.972Z,16.30
2022-10-30T22:20:36.056Z,15.48
2022-10-30T22:23:02.927Z,16.20
2022-10-30T22:25:29.714Z,16.55
2022-10-30T22:27:56.935Z,16.85
2022-10-30T22:30:23.913Z,17.30
2022-10-30T22:32:51.578Z,17.15
2022-10-30T22:35:18.773Z,16.25
2022-10-30T22:37:45.682Z,17.92
2022-10-30T22:40:12.483Z,15.25
2022-10-30T22:42:39.578Z,15.77
2022-10-30T22:45:07.059Z,16.45
2022-10-30T22:47:33.930Z,18.83
2022-10-30T22:50:01.006Z,16.08
2022-10-30T22:52:27.867Z,16.98
2022-10-30T22:54:54.744Z,15.88
2022-10-30T22:57:21.766Z,16.00
2022-10-30T22:59:48.580Z,16.30
2022-10-30T23:02:15.510Z,17.00
2022-10-30T23:04:42.525Z,17.33
2022-10-30T23:07:09.832Z,18.88
2022-10-30T23:09:36.960Z,16.75
2022-10-30T23:12:04.071Z,16.20
2022-10-30T23:14:31.153Z,18.52
2022-10-30T23:16:57.995Z,19.17
2022-10-30T23:19:26.811Z,16.63
2022-10-30T23:21:58.143Z,17.90
2022-10-30T23:24:26.421Z,17.15
2022-10-30T23:26:53.730Z,15.70
2022-10-30T23:29:20.851Z,17.27
2022-10-30T23:31:47.761Z,17.25
2022-10-30T23:34:16.042Z,17.52
2022-10-30T23:36:43.671Z,15.80
2022-10-30T23:39:14.762Z,17.52
2022-10-30T23:41:41.718Z,18.40
2022-10-30T23:44:12.228Z,17.67
2022-10-30T23:46:39.405Z,19.30
2022-10-30T23:49:06.923Z,18.20
2022-10-30T23:51:33.866Z,17.10
2022-10-30T23:54:00.912Z,19.35
2022-10-30T23:56:29.502Z,17.60
2022-10-30T23:58:56.860Z,18.75
